sensor_id;sensor_type;location;lat;lon;timestamp;pressure;altitude;pressure_sealevel;temperature;humidity
49341;BME280;35209;51.050;13.678;2023-03-18T00:02:16;99568.16;;;7.57;43.56
49341;BME280;35209;51.050;13.678;2023-03-18T00:07:19;99556.94;;;7.53;43.23
49341;BME280;35209;51.050;13.678;2023-03-18T00:12:21;99559.13;;;7.36;43.73
49341;BME280;35209;51.050;13.678;2023-03-18T00:17:22;99559.50;;;7.21;44.16
49341;BME280;35209;51.050;13.678;2023-03-18T00:22:24;99557.56;;;7.29;43.48
49341;BME280;35209;51.050;13.678;2023-03-18T00:27:26;99551.34;;;7.33;43.36
49341;BME280;35209;51.050;13.678;2023-03-18T00:32:28;99556.03;;;7.22;43.92
49341;BME280;35209;51.050;13.678;2023-03-18T00:37:30;99561.69;;;7.38;43.35
49341;BME280;35209;51.050;13.678;2023-03-18T00:42:39;99558.53;;;7.25;43.59
49341;BME280;35209;51.050;13.678;2023-03-18T00:47:47;99557.34;;;7.04;43.79
49341;BME280;35209;51.050;13.678;2023-03-18T00:52:50;99556.28;;;7.11;44.04
49341;BME280;35209;51.050;13.678;2023-03-18T00:57:52;99549.41;;;7.07;43.54
49341;BME280;35209;51.050;13.678;2023-03-18T01:02:55;99543.28;;;7.08;43.86
49341;BME280;35209;51.050;13.678;2023-03-18T01:07:57;99541.75;;;6.99;44.03
49341;BME280;35209;51.050;13.678;2023-03-18T01:12:59;99535.53;;;7.05;43.77
49341;BME280;35209;51.050;13.678;2023-03-18T01:18:01;99547.28;;;7.23;43.65
49341;BME280;35209;51.050;13.678;2023-03-18T01:23:05;99532.63;;;7.16;43.79
49341;BME280;35209;51.050;13.678;2023-03-18T01:28:07;99529.47;;;7.04;44.19
49341;BME280;35209;51.050;13.678;2023-03-18T01:33:09;99524.47;;;6.95;44.51
49341;BME280;35209;51.050;13.678;2023-03-18T01:38:12;99532.63;;;6.81;44.38
49341;BME280;35209;51.050;13.678;2023-03-18T01:43:18;99532.31;;;6.94;44.13
49341;BME280;35209;51.050;13.678;2023-03-18T01:48:24;99525.38;;;6.93;43.93
49341;BME280;35209;51.050;13.678;2023-03-18T01:53:41;99524.28;;;7.01;43.35
49341;BME280;35209;51.050;13.678;2023-03-18T01:58:46;99530.69;;;6.90;43.85
49341;BME280;35209;51.050;13.678;2023-03-18T02:03:49;99530.91;;;7.15;43.50
49341;BME280;35209;51.050;13.678;2023-03-18T02:08:53;99537.19;;;7.09;43.31
49341;BME280;35209;51.050;13.678;2023-03-18T02:13:56;99529.56;;;7.00;44.13
49341;BME280;35209;51.050;13.678;2023-03-18T02:19:03;99538.94;;;7.08;43.87
49341;BME280;35209;51.050;13.678;2023-03-18T02:24:38;99549.38;;;7.08;43.48
49341;BME280;35209;51.050;13.678;2023-03-18T02:29:47;99548.34;;;6.80;44.23
49341;BME280;35209;51.050;13.678;2023-03-18T02:34:54;99541.53;;;6.73;44.48
49341;BME280;35209;51.050;13.678;2023-03-18T02:40:30;99551.56;;;6.90;44.58
49341;BME280;35209;51.050;13.678;2023-03-18T02:45:48;99556.44;;;7.05;44.06
49341;BME280;35209;51.050;13.678;2023-03-18T02:50:52;99563.84;;;6.86;44.90
49341;BME280;35209;51.050;13.678;2023-03-18T02:55:54;99562.78;;;6.57;45.22
49341;BME280;35209;51.050;13.678;2023-03-18T03:00:57;99569.59;;;6.65;44.93
49341;BME280;35209;51.050;13.678;2023-03-18T03:05:59;99568.84;;;6.97;44.08
49341;BME280;35209;51.050;13.678;2023-03-18T03:11:01;99575.59;;;6.70;45.09
49341;BME280;35209;51.050;13.678;2023-03-18T03:16:06;99579.63;;;6.81;44.63
49341;BME280;35209;51.050;13.678;2023-03-18T03:21:11;99577.13;;;6.77;45.29
49341;BME280;35209;51.050;13.678;2023-03-18T03:26:14;99584.03;;;6.42;45.55
49341;BME280;35209;51.050;13.678;2023-03-18T03:31:16;99582.88;;;6.55;45.73
49341;BME280;35209;51.050;13.678;2023-03-18T03:36:18;99586.38;;;6.54;45.71
49341;BME280;35209;51.050;13.678;2023-03-18T03:41:21;99589.66;;;6.63;45.73
49341;BME280;35209;51.050;13.678;2023-03-18T03:46:23;99600.00;;;6.69;45.42
49341;BME280;35209;51.050;13.678;2023-03-18T03:51:25;99604.22;;;6.34;46.21
49341;BME280;35209;51.050;13.678;2023-03-18T03:56:28;99607.84;;;6.27;46.05
49341;BME280;35209;51.050;13.678;2023-03-18T04:01:31;99604.94;;;6.41;45.90
49341;BME280;35209;51.050;13.678;2023-03-18T04:06:35;99620.44;;;6.48;46.12
49341;BME280;35209;51.050;13.678;2023-03-18T04:11:37;99622.16;;;6.51;46.12
49341;BME280;35209;51.050;13.678;2023-03-18T04:17:00;99628.28;;;6.48;45.69
49341;BME280;35209;51.050;13.678;2023-03-18T04:22:03;99632.94;;;6.34;46.26
49341;BME280;35209;51.050;13.678;2023-03-18T04:27:05;99636.28;;;6.41;45.90
49341;BME280;35209;51.050;13.678;2023-03-18T04:32:07;99626.50;;;6.50;45.74
49341;BME280;35209;51.050;13.678;2023-03-18T04:37:11;99641.94;;;6.21;46.56
49341;BME280;35209;51.050;13.678;2023-03-18T04:42:17;99642.06;;;6.13;47.02
49341;BME280;35209;51.050;13.678;2023-03-18T04:47:19;99643.09;;;6.04;47.27
49341;BME280;35209;51.050;13.678;2023-03-18T04:52:23;99646.38;;;6.16;46.79
49341;BME280;35209;51.050;13.678;2023-03-18T04:57:29;99647.25;;;6.15;46.93
49341;BME280;35209;51.050;13.678;2023-03-18T05:02:32;99653.53;;;6.04;47.37
49341;BME280;35209;51.050;13.678;2023-03-18T05:07:34;99654.63;;;5.94;47.38
49341;BME280;35209;51.050;13.678;2023-03-18T05:12:42;99654.91;;;5.77;48.08
49341;BME280;35209;51.050;13.678;2023-03-18T05:17:46;99660.16;;;5.74;48.36
49341;BME280;35209;51.050;13.678;2023-03-18T05:22:48;99653.00;;;5.86;47.89
49341;BME280;35209;51.050;13.678;2023-03-18T05:28:00;99656.59;;;5.80;48.36
49341;BME280;35209;51.050;13.678;2023-03-18T05:33:12;99663.78;;;5.67;48.36
49341;BME280;35209;51.050;13.678;2023-03-18T05:38:25;99655.75;;;5.78;48.06
49341;BME280;35209;51.050;13.678;2023-03-18T05:43:28;99666.06;;;5.84;47.80
49341;BME280;35209;51.050;13.678;2023-03-18T05:48:31;99682.78;;;5.74;48.42
49341;BME280;35209;51.050;13.678;2023-03-18T05:53:37;99672.09;;;5.88;48.28
49341;BME280;35209;51.050;13.678;2023-03-18T05:58:49;99676.75;;;5.72;48.97
49341;BME280;35209;51.050;13.678;2023-03-18T06:04:11;99673.44;;;5.61;49.27
49341;BME280;35209;51.050;13.678;2023-03-18T06:09:13;99688.28;;;5.59;49.17
49341;BME280;35209;51.050;13.678;2023-03-18T06:14:17;99690.09;;;5.53;49.68
49341;BME280;35209;51.050;13.678;2023-03-18T06:19:20;99687.47;;;6.04;48.10
49341;BME280;35209;51.050;13.678;2023-03-18T06:24:22;99694.53;;;5.99;48.18
49341;BME280;35209;51.050;13.678;2023-03-18T06:29:24;99690.88;;;6.08;48.32
49341;BME280;35209;51.050;13.678;2023-03-18T06:34:29;99693.03;;;6.31;47.84
49341;BME280;35209;51.050;13.678;2023-03-18T06:39:32;99692.03;;;6.38;47.87
49341;BME280;35209;51.050;13.678;2023-03-18T06:44:39;99695.50;;;6.39;47.69
49341;BME280;35209;51.050;13.678;2023-03-18T06:49:50;99681.41;;;6.46;48.07
49341;BME280;35209;51.050;13.678;2023-03-18T06:54:57;99687.88;;;6.70;47.77
49341;BME280;35209;51.050;13.678;2023-03-18T07:00:02;99693.13;;;6.68;48.65
49341;BME280;35209;51.050;13.678;2023-03-18T07:05:06;99696.72;;;7.04;48.26
49341;BME280;35209;51.050;13.678;2023-03-18T07:10:26;99697.63;;;7.02;46.84
49341;BME280;35209;51.050;13.678;2023-03-18T07:15:35;99701.00;;;7.44;46.26
49341;BME280;35209;51.050;13.678;2023-03-18T07:20:40;99711.13;;;7.58;46.23
49341;BME280;35209;51.050;13.678;2023-03-18T07:25:42;99705.22;;;8.17;44.97
49341;BME280;35209;51.050;13.678;2023-03-18T07:30:45;99705.44;;;8.42;45.16
49341;BME280;35209;51.050;13.678;2023-03-18T07:35:49;99706.31;;;8.42;44.41
49341;BME280;35209;51.050;13.678;2023-03-18T07:40:51;99700.53;;;8.61;44.86
49341;BME280;35209;51.050;13.678;2023-03-18T07:45:53;99700.91;;;8.78;44.23
49341;BME280;35209;51.050;13.678;2023-03-18T07:50:56;99702.28;;;8.90;44.03
49341;BME280;35209;51.050;13.678;2023-03-18T07:55:58;99698.78;;;8.91;44.11
49341;BME280;35209;51.050;13.678;2023-03-18T08:01:02;99699.34;;;8.71;44.45
49341;BME280;35209;51.050;13.678;2023-03-18T08:06:04;99712.31;;;9.05;43.67
49341;BME280;35209;51.050;13.678;2023-03-18T08:11:06;99707.00;;;9.08;43.67
49341;BME280;35209;51.050;13.678;2023-03-18T08:16:09;99711.81;;;9.48;43.21
49341;BME280;35209;51.050;13.678;2023-03-18T08:21:12;99700.63;;;9.43;43.06
49341;BME280;35209;51.050;13.678;2023-03-18T08:26:14;99708.59;;;9.67;44.03
49341;BME280;35209;51.050;13.678;2023-03-18T08:31:16;99713.59;;;9.99;44.31
49341;BME280;35209;51.050;13.678;2023-03-18T08:36:18;99716.91;;;10.04;42.35
49341;BME280;35209;51.050;13.678;2023-03-18T08:41:21;99720.44;;;10.30;41.59
49341;BME280;35209;51.050;13.678;2023-03-18T08:46:23;99724.28;;;10.20;43.11
49341;BME280;35209;51.050;13.678;2023-03-18T08:51:24;99732.47;;;10.60;41.84
49341;BME280;35209;51.050;13.678;2023-03-18T08:56:27;99728.66;;;11.15;40.29
49341;BME280;35209;51.050;13.678;2023-03-18T09:01:29;99732.34;;;11.32;40.61
49341;BME280;35209;51.050;13.678;2023-03-18T09:06:30;99731.47;;;11.55;41.12
49341;BME280;35209;51.050;13.678;2023-03-18T09:11:32;99722.41;;;12.05;39.17
49341;BME280;35209;51.050;13.678;2023-03-18T09:16:34;99719.75;;;12.25;39.59
49341;BME280;35209;51.050;13.678;2023-03-18T09:21:36;99722.19;;;12.09;39.49
49341;BME280;35209;51.050;13.678;2023-03-18T09:26:39;99726.19;;;12.78;39.06
49341;BME280;35209;51.050;13.678;2023-03-18T09:31:41;99718.19;;;13.36;37.48
49341;BME280;35209;51.050;13.678;2023-03-18T09:36:42;99723.88;;;13.46;37.60
49341;BME280;35209;51.050;13.678;2023-03-18T09:52:47;99720.91;;;13.71;38.18
49341;BME280;35209;51.050;13.678;2023-03-18T09:57:56;99724.81;;;13.45;38.44
49341;BME280;35209;51.050;13.678;2023-03-18T10:03:18;99716.09;;;13.79;37.37
49341;BME280;35209;51.050;13.678;2023-03-18T10:13:56;99711.75;;;13.95;36.60
49341;BME280;35209;51.050;13.678;2023-03-18T10:18:59;99721.88;;;14.04;36.71
49341;BME280;35209;51.050;13.678;2023-03-18T10:29:41;99728.84;;;14.23;37.78
49341;BME280;35209;51.050;13.678;2023-03-18T10:34:53;99722.63;;;14.06;38.26
49341;BME280;35209;51.050;13.678;2023-03-18T10:39:58;99728.00;;;14.22;37.95
49341;BME280;35209;51.050;13.678;2023-03-18T10:45:35;99731.09;;;14.30;37.84
49341;BME280;35209;51.050;13.678;2023-03-18T10:50:41;99731.81;;;13.99;38.22
49341;BME280;35209;51.050;13.678;2023-03-18T10:56:09;99735.72;;;14.60;36.75
49341;BME280;35209;51.050;13.678;2023-03-18T11:01:14;99728.16;;;14.19;37.70
49341;BME280;35209;51.050;13.678;2023-03-18T11:06:43;99735.75;;;14.25;38.76
49341;BME280;35209;51.050;13.678;2023-03-18T11:11:49;99732.00;;;14.29;38.34
49341;BME280;35209;51.050;13.678;2023-03-18T11:17:05;99740.59;;;14.34;37.85
49341;BME280;35209;51.050;13.678;2023-03-18T11:22:22;99735.06;;;14.39;37.51
49341;BME280;35209;51.050;13.678;2023-03-18T11:27:28;99736.91;;;14.54;37.76
49341;BME280;35209;51.050;13.678;2023-03-18T11:32:33;99738.63;;;14.55;37.08
49341;BME280;35209;51.050;13.678;2023-03-18T11:37:40;99735.53;;;14.80;37.41
49341;BME280;35209;51.050;13.678;2023-03-18T11:42:43;99726.16;;;14.75;37.26
49341;BME280;35209;51.050;13.678;2023-03-18T11:47:46;99733.84;;;14.95;37.79
49341;BME280;35209;51.050;13.678;2023-03-18T11:52:56;99730.81;;;14.70;37.41
49341;BME280;35209;51.050;13.678;2023-03-18T12:03:58;99726.69;;;14.47;38.10
49341;BME280;35209;51.050;13.678;2023-03-18T12:09:22;99726.88;;;14.44;39.34
49341;BME280;35209;51.050;13.678;2023-03-18T12:14:39;99720.19;;;14.36;39.09
49341;BME280;35209;51.050;13.678;2023-03-18T12:46:34;99713.31;;;13.99;40.38
49341;BME280;35209;51.050;13.678;2023-03-18T12:57:20;99710.63;;;14.34;39.57
49341;BME280;35209;51.050;13.678;2023-03-18T13:02:51;99714.88;;;14.03;40.31
49341;BME280;35209;51.050;13.678;2023-03-18T13:08:24;99709.47;;;14.39;40.30
49341;BME280;35209;51.050;13.678;2023-03-18T13:13:29;99712.44;;;14.16;40.19
49341;BME280;35209;51.050;13.678;2023-03-18T13:18:39;99715.31;;;14.29;39.65
49341;BME280;35209;51.050;13.678;2023-03-18T13:24:08;99710.06;;;14.45;39.88
49341;BME280;35209;51.050;13.678;2023-03-18T13:40:02;99694.31;;;14.76;39.85
49341;BME280;35209;51.050;13.678;2023-03-18T13:55:34;99689.78;;;14.45;40.61
49341;BME280;35209;51.050;13.678;2023-03-18T14:00:45;99685.22;;;14.49;40.95
49341;BME280;35209;51.050;13.678;2023-03-18T14:21:48;99680.16;;;14.27;40.54
49341;BME280;35209;51.050;13.678;2023-03-18T14:32:17;99661.69;;;14.43;41.08
49341;BME280;35209;51.050;13.678;2023-03-18T14:37:30;99669.72;;;14.08;41.76
49341;BME280;35209;51.050;13.678;2023-03-18T14:42:36;99669.25;;;14.33;41.25
49341;BME280;35209;51.050;13.678;2023-03-18T14:47:48;99658.47;;;14.20;41.33
49341;BME280;35209;51.050;13.678;2023-03-18T14:52:53;99675.03;;;14.24;41.98
49341;BME280;35209;51.050;13.678;2023-03-18T14:57:58;99658.44;;;14.04;42.09
49341;BME280;35209;51.050;13.678;2023-03-18T15:03:04;99665.03;;;14.13;41.85
49341;BME280;35209;51.050;13.678;2023-03-18T15:08:11;99670.13;;;14.16;41.71
49341;BME280;35209;51.050;13.678;2023-03-18T15:13:16;99666.03;;;14.10;42.32
49341;BME280;35209;51.050;13.678;2023-03-18T15:18:28;99673.50;;;13.85;42.65
49341;BME280;35209;51.050;13.678;2023-03-18T15:23:35;99665.91;;;13.96;42.21
49341;BME280;35209;51.050;13.678;2023-03-18T15:28:38;99666.38;;;13.70;42.43
49341;BME280;35209;51.050;13.678;2023-03-18T15:33:40;99664.25;;;13.76;42.70
49341;BME280;35209;51.050;13.678;2023-03-18T15:38:46;99676.25;;;14.01;42.48
49341;BME280;35209;51.050;13.678;2023-03-18T15:43:50;99677.41;;;13.95;42.32
49341;BME280;35209;51.050;13.678;2023-03-18T15:48:54;99676.16;;;13.68;43.84
49341;BME280;35209;51.050;13.678;2023-03-18T15:54:02;99683.31;;;13.66;43.28
49341;BME280;35209;51.050;13.678;2023-03-18T15:59:27;99679.72;;;13.49;43.46
49341;BME280;35209;51.050;13.678;2023-03-18T16:04:31;99684.50;;;13.41;43.67
49341;BME280;35209;51.050;13.678;2023-03-18T16:09:33;99692.16;;;13.47;43.43
49341;BME280;35209;51.050;13.678;2023-03-18T16:14:38;99695.50;;;13.32;43.98
49341;BME280;35209;51.050;13.678;2023-03-18T16:19:42;99690.59;;;13.43;43.59
49341;BME280;35209;51.050;13.678;2023-03-18T16:24:46;99697.94;;;13.18;43.76
49341;BME280;35209;51.050;13.678;2023-03-18T16:29:48;99701.19;;;13.24;43.85
49341;BME280;35209;51.050;13.678;2023-03-18T16:34:50;99704.84;;;13.01;44.31
49341;BME280;35209;51.050;13.678;2023-03-18T16:39:53;99710.88;;;12.86;45.00
49341;BME280;35209;51.050;13.678;2023-03-18T16:44:55;99717.16;;;13.02;44.23
49341;BME280;35209;51.050;13.678;2023-03-18T16:49:57;99717.28;;;12.80;45.38
49341;BME280;35209;51.050;13.678;2023-03-18T16:55:00;99724.91;;;12.68;44.89
49341;BME280;35209;51.050;13.678;2023-03-18T17:00:03;99726.59;;;12.29;45.70
49341;BME280;35209;51.050;13.678;2023-03-18T17:05:12;99732.78;;;12.28;46.06
49341;BME280;35209;51.050;13.678;2023-03-18T17:10:17;99737.59;;;11.98;46.38
49341;BME280;35209;51.050;13.678;2023-03-18T17:15:24;99741.81;;;12.02;46.16
49341;BME280;35209;51.050;13.678;2023-03-18T17:20:29;99735.53;;;11.62;46.83
49341;BME280;35209;51.050;13.678;2023-03-18T17:25:32;99737.97;;;11.67;46.88
49341;BME280;35209;51.050;13.678;2023-03-18T17:30:37;99739.84;;;11.43;47.50
49341;BME280;35209;51.050;13.678;2023-03-18T17:35:39;99751.38;;;11.17;48.03
49341;BME280;35209;51.050;13.678;2023-03-18T17:40:41;99761.22;;;11.12;48.28
49341;BME280;35209;51.050;13.678;2023-03-18T17:45:43;99761.78;;;10.97;48.65
49341;BME280;35209;51.050;13.678;2023-03-18T17:50:47;99762.53;;;11.00;48.97
49341;BME280;35209;51.050;13.678;2023-03-18T17:55:50;99773.41;;;10.68;49.03
49341;BME280;35209;51.050;13.678;2023-03-18T18:00:53;99776.13;;;10.65;49.39
49341;BME280;35209;51.050;13.678;2023-03-18T18:05:56;99780.47;;;10.66;49.36
49341;BME280;35209;51.050;13.678;2023-03-18T18:11:14;99773.47;;;10.41;50.49
49341;BME280;35209;51.050;13.678;2023-03-18T18:16:20;99772.72;;;10.38;50.30
49341;BME280;35209;51.050;13.678;2023-03-18T18:21:22;99770.03;;;10.13;50.72
49341;BME280;35209;51.050;13.678;2023-03-18T18:26:24;99766.50;;;10.14;50.98
49341;BME280;35209;51.050;13.678;2023-03-18T18:31:26;99768.44;;;10.08;51.13
49341;BME280;35209;51.050;13.678;2023-03-18T18:36:28;99765.47;;;10.19;50.98
49341;BME280;35209;51.050;13.678;2023-03-18T18:41:31;99765.25;;;9.99;52.05
49341;BME280;35209;51.050;13.678;2023-03-18T18:46:33;99772.97;;;9.78;52.38
49341;BME280;35209;51.050;13.678;2023-03-18T18:51:35;99766.59;;;9.85;52.04
49341;BME280;35209;51.050;13.678;2023-03-18T18:56:37;99763.09;;;9.85;52.10
49341;BME280;35209;51.050;13.678;2023-03-18T19:01:38;99760.47;;;9.85;52.00
49341;BME280;35209;51.050;13.678;2023-03-18T19:06:41;99763.66;;;9.68;52.09
49341;BME280;35209;51.050;13.678;2023-03-18T19:11:44;99763.09;;;9.58;52.46
49341;BME280;35209;51.050;13.678;2023-03-18T19:16:46;99764.81;;;9.31;53.17
49341;BME280;35209;51.050;13.678;2023-03-18T19:21:49;99770.38;;;9.21;53.54
49341;BME280;35209;51.050;13.678;2023-03-18T19:26:56;99772.13;;;9.22;53.69
49341;BME280;35209;51.050;13.678;2023-03-18T19:31:59;99771.13;;;9.26;53.83
49341;BME280;35209;51.050;13.678;2023-03-18T19:37:01;99776.59;;;9.18;53.98
49341;BME280;35209;51.050;13.678;2023-03-18T19:42:11;99781.91;;;9.15;54.40
49341;BME280;35209;51.050;13.678;2023-03-18T19:47:16;99789.41;;;8.98;54.75
49341;BME280;35209;51.050;13.678;2023-03-18T19:52:24;99786.16;;;8.90;55.09
49341;BME280;35209;51.050;13.678;2023-03-18T19:57:29;99784.31;;;8.93;54.71
49341;BME280;35209;51.050;13.678;2023-03-18T20:02:33;99789.53;;;8.64;56.20
49341;BME280;35209;51.050;13.678;2023-03-18T20:07:35;99793.34;;;8.52;56.23
49341;BME280;35209;51.050;13.678;2023-03-18T20:12:39;99789.59;;;8.28;57.17
49341;BME280;35209;51.050;13.678;2023-03-18T20:17:44;99789.69;;;8.25;57.39
49341;BME280;35209;51.050;13.678;2023-03-18T20:22:50;99786.78;;;8.37;57.31
49341;BME280;35209;51.050;13.678;2023-03-18T20:27:53;99779.22;;;8.23;57.84
49341;BME280;35209;51.050;13.678;2023-03-18T20:32:57;99787.84;;;8.27;56.82
49341;BME280;35209;51.050;13.678;2023-03-18T20:38:03;99782.91;;;8.50;56.09
49341;BME280;35209;51.050;13.678;2023-03-18T20:43:05;99787.41;;;8.45;56.16
49341;BME280;35209;51.050;13.678;2023-03-18T20:48:07;99783.97;;;8.43;56.28
49341;BME280;35209;51.050;13.678;2023-03-18T20:53:15;99774.44;;;8.41;55.81
49341;BME280;35209;51.050;13.678;2023-03-18T20:58:26;99767.34;;;8.44;56.36
49341;BME280;35209;51.050;13.678;2023-03-18T21:03:30;99779.81;;;8.34;56.15
49341;BME280;35209;51.050;13.678;2023-03-18T21:08:33;99776.41;;;8.31;56.62
49341;BME280;35209;51.050;13.678;2023-03-18T21:13:36;99783.47;;;8.29;56.43
49341;BME280;35209;51.050;13.678;2023-03-18T21:18:40;99784.56;;;8.20;56.97
49341;BME280;35209;51.050;13.678;2023-03-18T21:23:48;99792.69;;;8.44;55.92
49341;BME280;35209;51.050;13.678;2023-03-18T21:28:50;99786.81;;;8.34;55.89
49341;BME280;35209;51.050;13.678;2023-03-18T21:33:59;99789.81;;;8.19;56.38
49341;BME280;35209;51.050;13.678;2023-03-18T21:39:04;99792.44;;;8.19;57.04
49341;BME280;35209;51.050;13.678;2023-03-18T21:44:09;99786.78;;;8.37;55.56
49341;BME280;35209;51.050;13.678;2023-03-18T21:49:11;99784.56;;;8.19;56.53
49341;BME280;35209;51.050;13.678;2023-03-18T21:54:17;99783.69;;;8.20;56.36
49341;BME280;35209;51.050;13.678;2023-03-18T21:59:19;99774.47;;;8.39;55.73
49341;BME280;35209;51.050;13.678;2023-03-18T22:04:21;99779.03;;;8.31;55.63
49341;BME280;35209;51.050;13.678;2023-03-18T22:09:23;99784.13;;;8.03;57.03
49341;BME280;35209;51.050;13.678;2023-03-18T22:14:27;99780.13;;;8.22;56.38
49341;BME280;35209;51.050;13.678;2023-03-18T22:19:29;99787.28;;;8.16;57.22
49341;BME280;35209;51.050;13.678;2023-03-18T22:24:30;99791.38;;;8.26;56.48
49341;BME280;35209;51.050;13.678;2023-03-18T22:29:32;99791.63;;;8.17;56.88
49341;BME280;35209;51.050;13.678;2023-03-18T22:34:34;99778.97;;;8.00;57.68
49341;BME280;35209;51.050;13.678;2023-03-18T22:39:36;99787.84;;;8.27;56.52
49341;BME280;35209;51.050;13.678;2023-03-18T22:44:38;99792.16;;;8.29;56.48
49341;BME280;35209;51.050;13.678;2023-03-18T22:49:40;99787.97;;;8.24;56.92
49341;BME280;35209;51.050;13.678;2023-03-18T22:54:41;99788.81;;;8.24;56.89
49341;BME280;35209;51.050;13.678;2023-03-18T22:59:43;99770.72;;;8.15;57.21
49341;BME280;35209;51.050;13.678;2023-03-18T23:04:48;99786.94;;;8.29;56.58
49341;BME280;35209;51.050;13.678;2023-03-18T23:09:52;99779.75;;;8.36;56.19
49341;BME280;35209;51.050;13.678;2023-03-18T23:14:57;99778.28;;;8.26;56.34
49341;BME280;35209;51.050;13.678;2023-03-18T23:19:59;99774.09;;;8.19;56.15
49341;BME280;35209;51.050;13.678;2023-03-18T23:25:02;99774.22;;;8.14;56.72
49341;BME280;35209;51.050;13.678;2023-03-18T23:30:04;99777.25;;;7.99;57.42
49341;BME280;35209;51.050;13.678;2023-03-18T23:35:07;99768.97;;;7.81;58.17
49341;BME280;35209;51.050;13.678;2023-03-18T23:40:10;99774.34;;;8.09;57.02
49341;BME280;35209;51.050;13.678;2023-03-18T23:45:12;99767.47;;;8.05;57.14
49341;BME280;35209;51.050;13.678;2023-03-18T23:50:14;99780.44;;;8.10;56.92
49341;BME280;35209;51.050;13.678;2023-03-18T23:55:16;99780.88;;;7.93;57.47
